Time;durP1;ratioP1;P1;durP2;ratioP2;P2;SDS_P1;SDS_P2;PMS_P1;PMS_P2;Temp;Humidity;BMP_temperature;BMP_pressure;BME280_temperature;BME280_humidity;BME280_pressure;Samples;Min_cycle;Max_cycle;Signal;HPM_P1;HPM_P2
2022/08/28 00:00:56;;;;;;;0.70;0.70;;;;;;;;;;5052841;28;20098;-69
2022/08/28 00:03:22;;;;;;;2.00;0.88;;;;;;;;;;5072538;28;20052;-69
2022/08/28 00:05:48;;;;;;;1.67;0.88;;;;;;;;;;5067313;28;20098;-69
2022/08/28 00:08:16;;;;;;;1.05;0.60;;;;;;;;;;5054075;28;20047;-69
2022/08/28 00:10:42;;;;;;;1.40;0.90;;;;;;;;;;5067074;28;20078;-69
2022/08/28 00:13:12;;;;;;;2.10;1.00;;;;;;;;;;5072682;28;20044;-68
2022/08/28 00:15:39;;;;;;;1.02;0.75;;;;;;;;;;5072571;28;20049;-68
2022/08/28 00:18:06;;;;;;;1.10;0.68;;;;;;;;;;5073183;28;20048;-68
2022/08/28 00:20:33;;;;;;;1.05;0.80;;;;;;;;;;5073145;28;20501;-69
2022/08/28 00:22:59;;;;;;;0.70;0.70;;;;;;;;;;5071532;28;20106;-69
2022/08/28 00:25:27;;;;;;;1.50;0.90;;;;;;;;;;5072795;28;20144;-68
2022/08/28 00:27:55;;;;;;;2.25;0.82;;;;;;;;;;5073424;28;20050;-68
2022/08/28 00:30:30;;;;;;;0.70;0.70;;;;;;;;;;5072145;28;20048;-69
2022/08/28 00:32:58;;;;;;;0.63;0.50;;;;;;;;;;5073082;28;20048;-70
2022/08/28 00:35:25;;;;;;;2.00;0.70;;;;;;;;;;5072350;28;20076;-69
2022/08/28 00:37:51;;;;;;;1.55;0.68;;;;;;;;;;5072088;28;20393;-69
2022/08/28 00:40:19;;;;;;;0.90;0.85;;;;;;;;;;5072505;28;20136;-69
2022/08/28 00:42:46;;;;;;;2.50;1.00;;;;;;;;;;5072733;28;20578;-69
2022/08/28 00:45:13;;;;;;;1.23;0.60;;;;;;;;;;5072207;28;20067;-69
2022/08/28 00:47:39;;;;;;;1.10;0.82;;;;;;;;;;5072018;28;20051;-69
2022/08/28 00:50:07;;;;;;;1.52;1.00;;;;;;;;;;5073161;28;20044;-69
2022/08/28 00:52:33;;;;;;;2.17;1.50;;;;;;;;;;5069342;28;20123;-69
2022/08/28 00:55:03;;;;;;;1.38;0.90;;;;;;;;;;5071732;28;20036;-69
2022/08/28 00:57:36;;;;;;;2.15;0.80;;;;;;;;;;5086766;28;20127;-69
2022/08/28 01:00:08;;;;;;;1.20;0.73;;;;;;;;;;5071618;28;20101;-69
2022/08/28 01:02:34;;;;;;;1.48;0.73;;;;;;;;;;5070985;28;20885;-69
2022/08/28 01:05:00;;;;;;;1.60;0.68;;;;;;;;;;5072800;28;20036;-69
2022/08/28 01:07:26;;;;;;;1.45;0.77;;;;;;;;;;5070359;28;20390;-69
2022/08/28 01:09:53;;;;;;;2.30;0.73;;;;;;;;;;5072436;28;20460;-69
2022/08/28 01:12:25;;;;;;;0.70;0.70;;;;;;;;;;5071696;28;20040;-69
2022/08/28 01:14:54;;;;;;;2.17;0.70;;;;;;;;;;5072673;28;20059;-69
2022/08/28 01:17:22;;;;;;;1.20;0.80;;;;;;;;;;5070667;28;20078;-69
2022/08/28 01:19:56;;;;;;;1.02;0.80;;;;;;;;;;5072064;28;20074;-69
2022/08/28 01:22:26;;;;;;;1.77;0.90;;;;;;;;;;5070918;28;20044;-68
2022/08/28 01:24:53;;;;;;;0.70;0.70;;;;;;;;;;5072454;28;20413;-69
2022/08/28 01:27:20;;;;;;;0.98;0.80;;;;;;;;;;5069789;28;20128;-69
2022/08/28 01:29:47;;;;;;;1.40;1.08;;;;;;;;;;5072357;28;20040;-69
2022/08/28 01:32:13;;;;;;;1.83;0.90;;;;;;;;;;5069805;28;20075;-69
2022/08/28 01:34:39;;;;;;;1.17;0.60;;;;;;;;;;5071966;28;20047;-69
2022/08/28 01:37:05;;;;;;;1.48;0.88;;;;;;;;;;5070629;28;20072;-69
2022/08/28 01:39:31;;;;;;;1.63;0.82;;;;;;;;;;5071419;28;20052;-69
2022/08/28 01:41:59;;;;;;;1.02;0.70;;;;;;;;;;5071649;28;20040;-69
2022/08/28 01:44:27;;;;;;;1.77;1.00;;;;;;;;;;5070718;28;20048;-69
2022/08/28 01:46:54;;;;;;;1.67;0.80;;;;;;;;;;5070237;28;20114;-69
2022/08/28 01:49:21;;;;;;;1.55;0.88;;;;;;;;;;5070863;28;20047;-70
2022/08/28 01:51:48;;;;;;;1.52;0.60;;;;;;;;;;5070893;28;20098;-70
2022/08/28 01:54:14;;;;;;;2.28;0.80;;;;;;;;;;5071821;28;20051;-70
2022/08/28 01:56:42;;;;;;;1.17;0.63;;;;;;;;;;5070503;28;20090;-70
2022/08/28 01:59:10;;;;;;;1.38;0.80;;;;;;;;;;5071739;28;20115;-70
2022/08/28 02:01:36;;;;;;;1.50;0.80;;;;;;;;;;5068119;28;20135;-70
2022/08/28 02:04:03;;;;;;;1.50;0.90;;;;;;;;;;5070860;28;20398;-70
2022/08/28 02:06:30;;;;;;;0.77;0.65;;;;;;;;;;5070510;28;20050;-70
2022/08/28 02:08:56;;;;;;;0.90;0.60;;;;;;;;;;5071130;28;20044;-70
2022/08/28 02:11:23;;;;;;;0.73;0.60;;;;;;;;;;5070750;28;20048;-70
2022/08/28 02:13:49;;;;;;;1.63;0.80;;;;;;;;;;5071252;28;20119;-70
2022/08/28 02:16:16;;;;;;;1.52;0.80;;;;;;;;;;5069035;28;20127;-70
2022/08/28 02:18:42;;;;;;;1.15;0.80;;;;;;;;;;5068438;28;20041;-70
2022/08/28 02:21:09;;;;;;;1.52;0.80;;;;;;;;;;5070723;28;20047;-70
2022/08/28 02:23:36;;;;;;;1.27;0.50;;;;;;;;;;5069803;28;20041;-70
2022/08/28 02:26:02;;;;;;;1.80;0.90;;;;;;;;;;5071095;28;20055;-70
2022/08/28 02:28:28;;;;;;;0.95;0.70;;;;;;;;;;5070750;28;20066;-70
2022/08/28 02:30:54;;;;;;;0.88;0.80;;;;;;;;;;5070429;28;20048;-70
2022/08/28 02:33:20;;;;;;;1.83;0.80;;;;;;;;;;5069789;28;20174;-70
2022/08/28 02:35:48;;;;;;;1.02;0.75;;;;;;;;;;5071045;28;20040;-70
2022/08/28 02:38:14;;;;;;;1.35;0.75;;;;;;;;;;5070054;28;20045;-70
2022/08/28 02:40:40;;;;;;;1.33;0.77;;;;;;;;;;5070257;28;20328;-70
2022/08/28 02:43:06;;;;;;;0.88;0.77;;;;;;;;;;5070412;28;20047;-70
2022/08/28 02:45:33;;;;;;;1.48;0.90;;;;;;;;;;5069029;28;20147;-70
2022/08/28 02:48:00;;;;;;;0.88;0.68;;;;;;;;;;5070607;28;20131;-70
2022/08/28 02:50:28;;;;;;;0.90;0.70;;;;;;;;;;5070500;28;20084;-70
2022/08/28 02:52:54;;;;;;;0.82;0.70;;;;;;;;;;5069929;28;20044;-70
2022/08/28 02:55:21;;;;;;;1.00;0.90;;;;;;;;;;5070564;28;20045;-70
2022/08/28 02:57:48;;;;;;;1.10;0.98;;;;;;;;;;5069646;28;20043;-70
2022/08/28 03:00:16;;;;;;;0.77;0.70;;;;;;;;;;5070530;28;20477;-70
2022/08/28 03:02:44;;;;;;;1.73;0.80;;;;;;;;;;5069464;28;20721;-70
2022/08/28 03:05:10;;;;;;;1.52;0.82;;;;;;;;;;5070640;28;20095;-70
2022/08/28 03:07:37;;;;;;;1.33;0.70;;;;;;;;;;5069120;28;20047;-70
2022/08/28 03:10:04;;;;;;;1.10;0.70;;;;;;;;;;5070286;28;20040;-70
2022/08/28 03:12:30;;;;;;;1.77;0.75;;;;;;;;;;5069855;28;20488;-70
2022/08/28 03:14:56;;;;;;;0.75;0.60;;;;;;;;;;5070810;28;20049;-70
2022/08/28 03:17:23;;;;;;;1.60;0.93;;;;;;;;;;5064282;28;20477;-70
2022/08/28 03:19:49;;;;;;;1.10;0.90;;;;;;;;;;5070693;28;20047;-70
2022/08/28 03:22:16;;;;;;;3.10;1.35;;;;;;;;;;5060635;28;20049;-70
2022/08/28 03:24:43;;;;;;;1.33;0.65;;;;;;;;;;5069152;28;20063;-70
2022/08/28 03:27:10;;;;;;;0.65;0.60;;;;;;;;;;5069875;28;20040;-70
2022/08/28 03:29:36;;;;;;;0.73;0.52;;;;;;;;;;5065547;28;20474;-70
2022/08/28 03:32:02;;;;;;;0.68;0.50;;;;;;;;;;5073299;28;20044;-70
2022/08/28 03:34:28;;;;;;;0.65;0.60;;;;;;;;;;5073847;28;20405;-69
2022/08/28 03:36:54;;;;;;;0.80;0.70;;;;;;;;;;5072504;28;20083;-69
2022/08/28 03:39:20;;;;;;;1.73;0.80;;;;;;;;;;5073210;28;20079;-69
2022/08/28 03:41:47;;;;;;;1.27;0.82;;;;;;;;;;5073478;28;20041;-69
2022/08/28 03:44:14;;;;;;;1.20;0.90;;;;;;;;;;5074432;28;20044;-69
2022/08/28 03:46:40;;;;;;;2.30;1.05;;;;;;;;;;5071387;28;20051;-69
2022/08/28 03:49:06;;;;;;;1.48;0.80;;;;;;;;;;5074195;28;20052;-69
2022/08/28 03:51:33;;;;;;;1.50;0.80;;;;;;;;;;5073351;28;20127;-69
2022/08/28 03:54:00;;;;;;;1.05;0.82;;;;;;;;;;5073316;28;20119;-69
2022/08/28 03:56:28;;;;;;;1.63;0.70;;;;;;;;;;5073087;28;20481;-68
2022/08/28 03:58:57;;;;;;;0.65;0.60;;;;;;;;;;5073628;28;20045;-69
2022/08/28 04:01:24;;;;;;;1.88;0.75;;;;;;;;;;5072442;28;20044;-69
2022/08/28 04:03:50;;;;;;;1.30;0.57;;;;;;;;;;5072324;28;20078;-69
2022/08/28 04:06:17;;;;;;;0.98;0.70;;;;;;;;;;5073895;28;20055;-69
2022/08/28 04:08:43;;;;;;;0.70;0.70;;;;;;;;;;5072554;28;20048;-70
2022/08/28 04:11:09;;;;;;;0.75;0.68;;;;;;;;;;5073657;28;20441;-69
2022/08/28 04:13:35;;;;;;;0.98;0.60;;;;;;;;;;5073293;28;20055;-69
2022/08/28 04:16:03;;;;;;;1.00;0.85;;;;;;;;;;5072765;28;20044;-69
2022/08/28 04:18:29;;;;;;;0.68;0.60;;;;;;;;;;5072955;28;20037;-69
2022/08/28 04:21:00;;;;;;;1.13;0.93;;;;;;;;;;5072193;28;20043;-68
2022/08/28 04:23:27;;;;;;;1.10;0.73;;;;;;;;;;5071874;28;20128;-69
2022/08/28 04:25:53;;;;;;;1.23;0.80;;;;;;;;;;5068861;28;20110;-69
2022/08/28 04:28:19;;;;;;;0.73;0.70;;;;;;;;;;5072704;28;20544;-69
2022/08/28 04:30:45;;;;;;;1.13;0.75;;;;;;;;;;5069387;28;20502;-69
2022/08/28 04:33:11;;;;;;;1.05;0.73;;;;;;;;;;5052425;28;20483;-69
2022/08/28 04:35:40;;;;;;;0.93;0.65;;;;;;;;;;5065240;28;20128;-69
2022/08/28 04:38:06;;;;;;;0.70;0.70;;;;;;;;;;5071476;28;20099;-69
2022/08/28 04:40:33;;;;;;;0.68;0.68;;;;;;;;;;5071789;28;20060;-68
2022/08/28 04:42:59;;;;;;;1.50;0.82;;;;;;;;;;5072513;28;20044;-69
2022/08/28 04:45:25;;;;;;;2.10;0.77;;;;;;;;;;5071737;28;20044;-69
2022/08/28 04:47:51;;;;;;;1.20;0.65;;;;;;;;;;5071768;28;20105;-69
2022/08/28 04:50:17;;;;;;;1.23;0.60;;;;;;;;;;5073239;28;20051;-69
2022/08/28 04:52:43;;;;;;;1.45;0.68;;;;;;;;;;5071472;28;20045;-69
2022/08/28 04:55:10;;;;;;;1.48;0.73;;;;;;;;;;5071821;28;20382;-69
2022/08/28 04:57:36;;;;;;;1.33;0.98;;;;;;;;;;5072184;28;20040;-69
2022/08/28 05:00:02;;;;;;;1.00;0.73;;;;;;;;;;5072847;28;20050;-69
2022/08/28 05:02:28;;;;;;;1.63;0.82;;;;;;;;;;5051679;28;20076;-69
2022/08/28 05:04:54;;;;;;;1.20;0.73;;;;;;;;;;5052393;28;20053;-69
2022/08/28 05:07:21;;;;;;;1.58;1.25;;;;;;;;;;5051843;28;20045;-69
2022/08/28 05:09:47;;;;;;;1.45;0.80;;;;;;;;;;5057739;28;20155;-68
2022/08/28 05:12:16;;;;;;;0.63;0.63;;;;;;;;;;5072340;28;20060;-68
2022/08/28 05:14:42;;;;;;;0.95;0.55;;;;;;;;;;5071681;28;20048;-68
2022/08/28 05:17:08;;;;;;;1.33;0.60;;;;;;;;;;5071245;28;20098;-68
2022/08/28 05:19:34;;;;;;;0.70;0.60;;;;;;;;;;5072021;28;20040;-68
2022/08/28 05:22:00;;;;;;;0.93;0.70;;;;;;;;;;5071141;28;20828;-68
2022/08/28 05:24:27;;;;;;;1.10;0.65;;;;;;;;;;5070946;28;20482;-69
2022/08/28 05:26:53;;;;;;;0.95;0.70;;;;;;;;;;5071484;28;20527;-69
2022/08/28 05:29:19;;;;;;;1.15;0.60;;;;;;;;;;5072291;28;20059;-69
2022/08/28 05:31:46;;;;;;;0.60;0.60;;;;;;;;;;5065642;28;20157;-69
2022/08/28 05:34:12;;;;;;;0.80;0.60;;;;;;;;;;5052322;28;20207;-68
2022/08/28 05:36:38;;;;;;;0.93;0.60;;;;;;;;;;5057049;28;20070;-69
2022/08/28 05:39:06;;;;;;;1.38;0.90;;;;;;;;;;5071791;28;20040;-69
2022/08/28 05:41:32;;;;;;;1.05;0.70;;;;;;;;;;5071209;28;20045;-70
2022/08/28 05:43:59;;;;;;;0.70;0.57;;;;;;;;;;5071476;28;20047;-70
2022/08/28 05:46:27;;;;;;;1.13;0.90;;;;;;;;;;5070610;28;20047;-70
2022/08/28 05:48:53;;;;;;;0.77;0.63;;;;;;;;;;5071364;28;20090;-69
2022/08/28 05:51:22;;;;;;;1.08;0.68;;;;;;;;;;5071161;28;20473;-68
2022/08/28 05:53:49;;;;;;;0.68;0.68;;;;;;;;;;5069915;28;20040;-68
2022/08/28 05:56:16;;;;;;;1.23;0.70;;;;;;;;;;5071548;28;20048;-69
2022/08/28 05:58:43;;;;;;;0.75;0.70;;;;;;;;;;5071242;28;20086;-69
2022/08/28 06:01:14;;;;;;;0.45;0.45;;;;;;;;;;5070256;28;20591;-69
2022/08/28 06:03:41;;;;;;;0.85;0.60;;;;;;;;;;5070963;28;20044;-68
2022/08/28 06:06:08;;;;;;;1.50;0.80;;;;;;;;;;5068446;28;20078;-68
2022/08/28 06:08:34;;;;;;;0.90;0.80;;;;;;;;;;5058800;28;20041;-68
2022/08/28 06:11:01;;;;;;;1.35;0.50;;;;;;;;;;5053802;28;20041;-68
2022/08/28 06:13:27;;;;;;;0.73;0.60;;;;;;;;;;5060168;28;20047;-68
2022/08/28 06:15:54;;;;;;;0.75;0.60;;;;;;;;;;5067164;28;20075;-68
2022/08/28 06:18:20;;;;;;;0.90;0.63;;;;;;;;;;5071060;28;20043;-68
2022/08/28 06:20:46;;;;;;;1.52;0.90;;;;;;;;;;5070792;28;20052;-68
2022/08/28 06:23:14;;;;;;;0.75;0.63;;;;;;;;;;5058418;28;20092;-68
2022/08/28 06:25:44;;;;;;;0.70;0.63;;;;;;;;;;5050781;28;20044;-68
2022/08/28 06:28:10;;;;;;;1.35;0.70;;;;;;;;;;5057716;28;20045;-68
2022/08/28 06:30:37;;;;;;;0.80;0.70;;;;;;;;;;5070037;28;20489;-67
2022/08/28 06:33:04;;;;;;;1.25;0.70;;;;;;;;;;5064934;28;20128;-67
2022/08/28 06:35:30;;;;;;;2.20;1.10;;;;;;;;;;5071185;28;20127;-67
2022/08/28 06:37:57;;;;;;;0.50;0.50;;;;;;;;;;5055225;28;20041;-67
2022/08/28 06:40:24;;;;;;;0.60;0.60;;;;;;;;;;5061524;28;20492;-67
2022/08/28 06:42:50;;;;;;;0.57;0.57;;;;;;;;;;5070320;28;20044;-67
2022/08/28 06:45:17;;;;;;;0.65;0.60;;;;;;;;;;5070250;28;20505;-67
2022/08/28 06:47:43;;;;;;;1.38;0.55;;;;;;;;;;5068701;28;20455;-67
2022/08/28 06:50:09;;;;;;;0.93;0.50;;;;;;;;;;5071060;28;20051;-67
2022/08/28 06:52:35;;;;;;;0.68;0.60;;;;;;;;;;5058585;28;20037;-67
2022/08/28 06:55:01;;;;;;;1.25;0.60;;;;;;;;;;5055919;28;20115;-67
2022/08/28 06:57:28;;;;;;;0.60;0.55;;;;;;;;;;5064495;28;20040;-67
2022/08/28 06:59:57;;;;;;;0.90;0.70;;;;;;;;;;5062389;28;20051;-67
2022/08/28 07:02:23;;;;;;;0.70;0.60;;;;;;;;;;5066684;28;20070;-68
2022/08/28 07:04:53;;;;;;;0.63;0.57;;;;;;;;;;5068771;28;20488;-66
2022/08/28 07:07:20;;;;;;;1.15;0.80;;;;;;;;;;5069221;28;20048;-66
2022/08/28 07:09:47;;;;;;;0.93;0.80;;;;;;;;;;5067135;28;20133;-66
2022/08/28 07:12:16;;;;;;;0.68;0.68;;;;;;;;;;5069702;28;20482;-66
2022/08/28 07:14:43;;;;;;;0.90;0.70;;;;;;;;;;5069364;28;20052;-66
2022/08/28 07:17:09;;;;;;;0.90;0.77;;;;;;;;;;5068095;28;20244;-66
2022/08/28 07:19:36;;;;;;;1.30;0.80;;;;;;;;;;5069634;28;20047;-66
2022/08/28 07:22:03;;;;;;;0.80;0.73;;;;;;;;;;5068340;28;20637;-66
2022/08/28 07:24:29;;;;;;;1.48;1.00;;;;;;;;;;5069960;28;20067;-66
2022/08/28 07:26:56;;;;;;;0.88;0.60;;;;;;;;;;5069079;28;20044;-66
2022/08/28 07:29:22;;;;;;;1.33;0.77;;;;;;;;;;5070432;28;20182;-66
2022/08/28 07:31:50;;;;;;;0.95;0.60;;;;;;;;;;5066566;28;20473;-66
2022/08/28 07:34:17;;;;;;;0.90;0.70;;;;;;;;;;5069281;28;20097;-66
2022/08/28 07:36:43;;;;;;;0.60;0.60;;;;;;;;;;5068730;28;20048;-66
2022/08/28 07:39:10;;;;;;;0.60;0.60;;;;;;;;;;5068309;28;20048;-66
2022/08/28 07:41:39;;;;;;;1.10;0.60;;;;;;;;;;5068858;28;20044;-66
2022/08/28 07:46:53;;;;;;;1.05;0.70;;;;;;;;;;5066575;28;20442;-67
2022/08/28 07:49:19;;;;;;;1.00;0.65;;;;;;;;;;5065726;28;20071;-67
2022/08/28 07:51:45;;;;;;;0.63;0.50;;;;;;;;;;5066483;28;20032;-67
2022/08/28 07:54:11;;;;;;;1.00;0.82;;;;;;;;;;5065798;28;20550;-67
2022/08/28 07:56:39;;;;;;;1.38;0.70;;;;;;;;;;5065039;28;20350;-67
2022/08/28 07:59:06;;;;;;;1.10;0.75;;;;;;;;;;5066433;28;20048;-67
2022/08/28 08:01:35;;;;;;;1.05;0.70;;;;;;;;;;5064951;28;20037;-67
2022/08/28 08:04:01;;;;;;;0.85;0.65;;;;;;;;;;5079772;28;20045;-67
2022/08/28 08:06:29;;;;;;;0.65;0.55;;;;;;;;;;5065433;28;20048;-71
2022/08/28 08:08:56;;;;;;;1.38;0.68;;;;;;;;;;5061833;28;20045;-67
2022/08/28 08:11:22;;;;;;;0.82;0.70;;;;;;;;;;5065830;28;20036;-67
2022/08/28 08:13:48;;;;;;;0.95;0.70;;;;;;;;;;5066176;28;20105;-67
2022/08/28 08:16:16;;;;;;;1.38;0.70;;;;;;;;;;5067634;28;20041;-66
2022/08/28 08:18:42;;;;;;;1.27;0.93;;;;;;;;;;5067612;28;20050;-59
2022/08/28 08:21:10;;;;;;;2.20;0.60;;;;;;;;;;5069304;28;20041;-58
2022/08/28 08:23:37;;;;;;;1.15;0.80;;;;;;;;;;5066486;28;20091;-66
2022/08/28 08:26:05;;;;;;;0.90;0.75;;;;;;;;;;5068906;28;20060;-66
2022/08/28 08:28:33;;;;;;;1.05;0.80;;;;;;;;;;5070420;28;20045;-65
2022/08/28 08:31:07;;;;;;;2.35;0.88;;;;;;;;;;5050187;28;20046;-65
2022/08/28 08:33:33;;;;;;;0.88;0.80;;;;;;;;;;5062448;28;20524;-65
2022/08/28 08:35:59;;;;;;;1.42;0.73;;;;;;;;;;5071988;28;20044;-64
2022/08/28 08:38:28;;;;;;;1.17;0.73;;;;;;;;;;5067276;28;20094;-64
2022/08/28 08:40:54;;;;;;;1.17;0.60;;;;;;;;;;5069127;28;20053;-64
2022/08/28 08:43:22;;;;;;;1.00;0.60;;;;;;;;;;5071308;28;20056;-64
2022/08/28 08:45:50;;;;;;;0.80;0.70;;;;;;;;;;5067681;28;20044;-65
2022/08/28 08:48:36;;;;;;;2.22;0.85;;;;;;;;;;5066876;28;20517;-64
2022/08/28 08:51:10;;;;;;;2.53;1.00;;;;;;;;;;5069863;28;20062;-66
2022/08/28 08:53:47;;;;;;;0.77;0.68;;;;;;;;;;5069950;28;20047;-66
2022/08/28 08:56:15;;;;;;;1.85;0.93;;;;;;;;;;5069065;28;20052;-66
2022/08/28 08:58:43;;;;;;;0.73;0.70;;;;;;;;;;5069551;28;20074;-66
2022/08/28 09:01:12;;;;;;;1.15;0.80;;;;;;;;;;5068882;28;20105;-66
2022/08/28 09:03:49;;;;;;;1.48;0.80;;;;;;;;;;5069659;28;20068;-65
2022/08/28 09:06:29;;;;;;;0.73;0.60;;;;;;;;;;5069415;28;20178;-65
2022/08/28 09:09:02;;;;;;;0.68;0.55;;;;;;;;;;5068075;28;20525;-66
2022/08/28 09:11:45;;;;;;;0.52;0.52;;;;;;;;;;5068970;28;20082;-65
2022/08/28 09:14:29;;;;;;;0.88;0.68;;;;;;;;;;5068006;28;20044;-65
2022/08/28 09:16:56;;;;;;;0.93;0.65;;;;;;;;;;5068302;28;20033;-66
2022/08/28 09:19:22;;;;;;;1.40;0.73;;;;;;;;;;5069835;28;20485;-65
2022/08/28 09:21:49;;;;;;;1.08;0.63;;;;;;;;;;5067610;28;20036;-65
2022/08/28 09:24:27;;;;;;;1.83;0.80;;;;;;;;;;5069602;28;20081;-66
2022/08/28 09:26:55;;;;;;;1.23;1.10;;;;;;;;;;5068055;28;20083;-65
2022/08/28 09:29:25;;;;;;;1.08;0.93;;;;;;;;;;5068773;28;20513;-66
2022/08/28 09:31:51;;;;;;;0.57;0.55;;;;;;;;;;5066500;28;20064;-66
2022/08/28 09:34:19;;;;;;;0.82;0.50;;;;;;;;;;5061638;28;20152;-65
2022/08/28 09:36:45;;;;;;;1.50;0.63;;;;;;;;;;5066866;28;20051;-65
2022/08/28 09:39:15;;;;;;;2.17;0.70;;;;;;;;;;5063297;28;20417;-66
2022/08/28 09:44:33;;;;;;;0.93;0.70;;;;;;;;;;5068644;28;20048;-66
2022/08/28 09:46:59;;;;;;;1.70;0.75;;;;;;;;;;5064581;28;20051;-67
2022/08/28 09:49:27;;;;;;;1.00;0.57;;;;;;;;;;5057298;28;20124;-66
2022/08/28 09:51:54;;;;;;;2.90;0.77;;;;;;;;;;5061080;28;20446;-66
2022/08/28 09:54:20;;;;;;;1.17;0.70;;;;;;;;;;5067065;28;20049;-66
2022/08/28 09:56:47;;;;;;;1.08;0.73;;;;;;;;;;5065050;28;20040;-66
2022/08/28 09:59:17;;;;;;;1.15;0.70;;;;;;;;;;5062250;28;20036;-66
2022/08/28 10:01:47;;;;;;;1.58;0.70;;;;;;;;;;5061340;28;20131;-66
2022/08/28 10:04:17;;;;;;;1.05;0.60;;;;;;;;;;5066982;28;20052;-66
2022/08/28 10:06:47;;;;;;;0.77;0.70;;;;;;;;;;5064405;28;20711;-66
2022/08/28 10:09:24;;;;;;;1.65;0.75;;;;;;;;;;5068843;28;20051;-66
2022/08/28 10:11:53;;;;;;;1.27;0.80;;;;;;;;;;5065847;28;20587;-66
2022/08/28 10:14:58;;;;;;;1.08;0.70;;;;;;;;;;5068210;28;20115;-66
2022/08/28 10:17:30;;;;;;;0.60;0.60;;;;;;;;;;4985595;28;20133;-66
2022/08/28 10:20:13;;;;;;;1.08;0.60;;;;;;;;;;4990861;28;20061;-66
2022/08/28 10:22:39;;;;;;;0.80;0.57;;;;;;;;;;5040008;28;20155;-66
2022/08/28 10:25:11;;;;;;;1.73;0.95;;;;;;;;;;5065702;28;20382;-66
2022/08/28 10:27:40;;;;;;;1.17;0.77;;;;;;;;;;5063548;28;20041;-66
2022/08/28 10:30:09;;;;;;;0.63;0.50;;;;;;;;;;5068584;28;20082;-66
2022/08/28 10:32:38;;;;;;;1.15;0.70;;;;;;;;;;5061364;28;20489;-65
2022/08/28 10:35:11;;;;;;;0.85;0.70;;;;;;;;;;5069620;28;20040;-66
2022/08/28 10:37:40;;;;;;;1.33;0.63;;;;;;;;;;5065468;28;20072;-68
2022/08/28 10:40:16;;;;;;;1.42;0.80;;;;;;;;;;5066884;28;20131;-66
2022/08/28 10:42:46;;;;;;;0.60;0.60;;;;;;;;;;5058964;28;20090;-65
2022/08/28 10:45:16;;;;;;;0.57;0.57;;;;;;;;;;5065703;28;20291;-67
2022/08/28 10:47:45;;;;;;;0.95;0.80;;;;;;;;;;5049888;28;20041;-66
2022/08/28 10:50:16;;;;;;;1.25;0.85;;;;;;;;;;5049938;28;20589;-66
2022/08/28 10:52:48;;;;;;;0.68;0.68;;;;;;;;;;5053436;28;20102;-68
2022/08/28 10:55:33;;;;;;;0.85;0.77;;;;;;;;;;5068378;28;20066;-67
2022/08/28 10:58:10;;;;;;;1.65;0.70;;;;;;;;;;5060067;28;20461;-68
2022/08/28 11:00:36;;;;;;;0.85;0.60;;;;;;;;;;5069414;28;20447;-68
2022/08/28 11:03:07;;;;;;;1.15;0.90;;;;;;;;;;5066456;28;20119;-68
2022/08/28 11:05:39;;;;;;;1.85;0.60;;;;;;;;;;5069277;28;20036;-68
2022/08/28 11:08:06;;;;;;;1.40;0.85;;;;;;;;;;5061088;28;20032;-67
2022/08/28 11:10:35;;;;;;;2.67;1.00;;;;;;;;;;5061630;28;20119;-67
2022/08/28 11:13:03;;;;;;;1.35;0.80;;;;;;;;;;5060033;28;20109;-68
2022/08/28 11:15:30;;;;;;;1.75;0.90;;;;;;;;;;5061550;28;20037;-68
2022/08/28 11:18:08;;;;;;;1.42;0.70;;;;;;;;;;5067839;28;20052;-68
2022/08/28 11:20:35;;;;;;;1.38;1.10;;;;;;;;;;5054732;28;20048;-68
2022/08/28 11:23:11;;;;;;;2.47;1.13;;;;;;;;;;5061189;28;20039;-71
2022/08/28 11:25:37;;;;;;;;;;;;;;;;;;5050682;28;20124;-68
2022/08/28 11:28:31;;;;;;;4.00;1.88;;;;;;;;;;5057375;28;20058;-68
2022/08/28 11:31:00;;;;;;;1.77;1.00;;;;;;;;;;5045414;28;20053;-68
2022/08/28 11:33:37;;;;;;;2.50;0.93;;;;;;;;;;5063563;28;20040;-67
2022/08/28 11:36:08;;;;;;;2.88;0.90;;;;;;;;;;5059933;28;20123;-65
2022/08/28 11:38:40;;;;;;;3.33;1.17;;;;;;;;;;5065576;28;20044;-67
2022/08/28 11:41:19;;;;;;;1.35;0.82;;;;;;;;;;5066771;28;20503;-67
2022/08/28 11:43:46;;;;;;;2.50;0.68;;;;;;;;;;5067791;28;20048;-67
2022/08/28 11:46:31;;;;;;;1.67;1.02;;;;;;;;;;5051617;28;20060;-66
2022/08/28 11:49:05;;;;;;;1.10;0.80;;;;;;;;;;5048693;28;20697;-67
2022/08/28 11:51:37;;;;;;;1.58;1.05;;;;;;;;;;5069685;28;20052;-67
2022/08/28 11:54:12;;;;;;;2.03;0.88;;;;;;;;;;5073417;28;20044;-67
2022/08/28 11:56:38;;;;;;;2.08;0.85;;;;;;;;;;5072537;28;20115;-67
2022/08/28 11:59:08;;;;;;;1.42;0.98;;;;;;;;;;5073820;28;20048;-67
2022/08/28 12:01:35;;;;;;;1.27;0.90;;;;;;;;;;5055455;28;20120;-67
2022/08/28 12:04:03;;;;;;;2.03;0.98;;;;;;;;;;5055547;28;20040;-67
2022/08/28 12:06:46;;;;;;;2.45;0.90;;;;;;;;;;5058659;28;20051;-67
2022/08/28 12:09:32;;;;;;;2.20;1.05;;;;;;;;;;5053674;28;20045;-67
2022/08/28 12:11:59;;;;;;;1.03;0.80;;;;;;;;;;5057491;28;20051;-67
2022/08/28 12:14:25;;;;;;;1.25;0.70;;;;;;;;;;5072601;28;20083;-67
2022/08/28 12:17:00;;;;;;;2.33;1.00;;;;;;;;;;5071519;28;20048;-67
2022/08/28 12:19:29;;;;;;;1.58;1.05;;;;;;;;;;5073002;28;20059;-67
2022/08/28 12:21:55;;;;;;;2.38;1.17;;;;;;;;;;5060422;28;20046;-67
2022/08/28 12:24:22;;;;;;;1.48;1.00;;;;;;;;;;5072889;28;20115;-67
2022/08/28 19:43:13;;;;;;;2.73;0.93;;;;;;;;;;5114429;27;20196;-68
2022/08/28 19:45:44;;;;;;;2.03;1.30;;;;;;;;;;5108379;28;20448;-68
2022/08/28 19:48:10;;;;;;;1.58;0.93;;;;;;;;;;5104579;28;20074;-68
2022/08/28 19:50:38;;;;;;;1.20;0.75;;;;;;;;;;5105990;28;20040;-68
2022/08/28 19:53:04;;;;;;;2.03;1.02;;;;;;;;;;5108608;28;20047;-67
2022/08/28 19:55:31;;;;;;;1.75;0.88;;;;;;;;;;5107122;28;20055;-66
2022/08/28 19:57:57;;;;;;;1.35;0.80;;;;;;;;;;5106395;28;20042;-67
2022/08/28 20:00:24;;;;;;;1.58;0.75;;;;;;;;;;5102920;28;20447;-70
2022/08/28 20:02:51;;;;;;;1.45;1.00;;;;;;;;;;5103919;28;20110;-66
2022/08/28 20:05:18;;;;;;;2.20;1.10;;;;;;;;;;5105728;28;20457;-66
2022/08/28 20:07:44;;;;;;;1.63;1.00;;;;;;;;;;5104582;28;20119;-68
2022/08/28 20:10:11;;;;;;;1.52;0.80;;;;;;;;;;5104521;28;20072;-67
2022/08/28 20:12:38;;;;;;;1.98;0.90;;;;;;;;;;5105346;28;20040;-70
2022/08/28 20:15:05;;;;;;;1.58;1.27;;;;;;;;;;5109936;28;20100;-67
2022/08/28 20:17:31;;;;;;;1.38;0.90;;;;;;;;;;5103614;28;20039;-72
2022/08/28 20:19:59;;;;;;;3.78;0.90;;;;;;;;;;5097369;28;20564;-73
2022/08/28 20:22:26;;;;;;;3.67;0.88;;;;;;;;;;5101783;28;20044;-69
2022/08/28 20:24:52;;;;;;;1.10;0.80;;;;;;;;;;5101489;28;20043;-68
2022/08/28 20:27:19;;;;;;;2.08;0.80;;;;;;;;;;5102667;28;20181;-69
2022/08/28 20:29:46;;;;;;;1.30;0.75;;;;;;;;;;5102067;28;20048;-67
2022/08/28 20:32:12;;;;;;;1.65;0.90;;;;;;;;;;5101702;28;20036;-68
2022/08/28 20:34:38;;;;;;;1.75;0.90;;;;;;;;;;5103375;28;20044;-69
2022/08/28 20:37:04;;;;;;;1.25;0.80;;;;;;;;;;5101320;28;20507;-69
2022/08/28 20:39:30;;;;;;;3.40;0.82;;;;;;;;;;5102054;28;20048;-71
2022/08/28 20:41:56;;;;;;;1.38;1.02;;;;;;;;;;5102340;28;20056;-74
2022/08/28 20:44:23;;;;;;;1.23;0.93;;;;;;;;;;5090290;28;20058;-67
2022/08/28 20:46:49;;;;;;;2.78;1.10;;;;;;;;;;5101654;28;20040;-67
2022/08/28 20:49:16;;;;;;;1.73;0.95;;;;;;;;;;5102676;28;20039;-67
2022/08/28 20:51:52;;;;;;;1.38;0.90;;;;;;;;;;5094159;28;20058;-67
2022/08/28 20:54:28;;;;;;;3.20;1.00;;;;;;;;;;5084630;28;20282;-69
2022/08/28 20:56:56;;;;;;;1.30;0.70;;;;;;;;;;5088007;28;20127;-68
2022/08/28 20:59:23;;;;;;;1.45;0.80;;;;;;;;;;5086250;28;20058;-70
2022/08/28 21:01:50;;;;;;;1.15;0.63;;;;;;;;;;5086104;28;20048;-68
2022/08/28 21:04:17;;;;;;;0.55;0.55;;;;;;;;;;5088446;28;20428;-67
2022/08/28 21:06:45;;;;;;;1.70;0.80;;;;;;;;;;5089256;28;20055;-67
2022/08/28 21:09:13;;;;;;;1.63;0.80;;;;;;;;;;5088157;28;20122;-67
2022/08/28 21:11:39;;;;;;;2.42;0.88;;;;;;;;;;5088624;28;20040;-70
2022/08/28 21:14:05;;;;;;;0.70;0.70;;;;;;;;;;5088251;28;20050;-68
2022/08/28 21:16:34;;;;;;;1.33;0.80;;;;;;;;;;5087313;28;20047;-68
2022/08/28 21:19:00;;;;;;;1.15;0.75;;;;;;;;;;5088602;28;20036;-74
2022/08/28 21:21:27;;;;;;;1.60;0.70;;;;;;;;;;5088662;28;20040;-69
2022/08/28 21:23:53;;;;;;;1.50;0.95;;;;;;;;;;5088685;28;20494;-68
2022/08/28 21:26:19;;;;;;;2.08;0.90;;;;;;;;;;5089425;28;20047;-67
2022/08/28 21:28:46;;;;;;;6.13;1.95;;;;;;;;;;5088424;28;20130;-67
2022/08/28 21:31:12;;;;;;;1.75;0.90;;;;;;;;;;5087933;28;20044;-68
2022/08/28 21:33:39;;;;;;;1.33;0.90;;;;;;;;;;5086786;28;20126;-67
2022/08/28 21:36:09;;;;;;;0.80;0.70;;;;;;;;;;5080348;28;20052;-67
2022/08/28 21:38:36;;;;;;;1.67;0.70;;;;;;;;;;5084531;28;20059;-67
2022/08/28 21:41:03;;;;;;;1.45;0.90;;;;;;;;;;5090620;28;20077;-72
2022/08/28 21:43:29;;;;;;;0.93;0.70;;;;;;;;;;5089507;28;20074;-67
2022/08/28 21:46:00;;;;;;;1.75;0.88;;;;;;;;;;5086854;28;20072;-68
2022/08/28 21:48:26;;;;;;;2.53;0.90;;;;;;;;;;5087835;28;20048;-67
2022/08/28 21:50:52;;;;;;;1.30;0.75;;;;;;;;;;5089464;28;20529;-67
2022/08/28 21:53:18;;;;;;;0.90;0.63;;;;;;;;;;5087064;28;20123;-67
2022/08/28 21:55:48;;;;;;;1.80;0.93;;;;;;;;;;5089490;28;20046;-66
2022/08/28 21:58:15;;;;;;;1.95;0.90;;;;;;;;;;5088633;28;20047;-70
2022/08/28 22:00:41;;;;;;;0.75;0.70;;;;;;;;;;5087590;28;20066;-67
2022/08/28 22:03:07;;;;;;;1.40;0.80;;;;;;;;;;5092136;28;20040;-67
2022/08/28 22:05:33;;;;;;;1.67;1.02;;;;;;;;;;5088183;28;20459;-67
2022/08/28 22:07:59;;;;;;;1.45;0.73;;;;;;;;;;5088056;28;20549;-67
2022/08/28 22:10:26;;;;;;;1.52;0.50;;;;;;;;;;5088776;28;20159;-67